createdAt,value
2023-04-09T00:02:27.313Z,31.72
2023-04-09T00:08:19.001Z,31.75
2023-04-09T00:13:39.214Z,31.85
2023-04-09T00:18:40.292Z,31.85
2023-04-09T00:23:47.895Z,32.00
2023-04-09T00:29:00.448Z,32.15
2023-04-09T00:34:19.197Z,32.29
2023-04-09T00:40:06.413Z,32.45
2023-04-09T00:45:14.134Z,32.58
2023-04-09T00:50:26.611Z,32.66
2023-04-09T00:55:34.193Z,32.80
2023-04-09T01:01:03.133Z,32.91
2023-04-09T01:06:01.046Z,33.01
2023-04-09T01:11:10.828Z,33.10
2023-04-09T01:16:21.745Z,33.23
2023-04-09T01:21:29.746Z,33.28
2023-04-09T01:26:54.962Z,33.30
2023-04-09T01:32:35.528Z,33.33
2023-04-09T01:38:21.700Z,33.45
2023-04-09T01:43:33.639Z,33.58
2023-04-09T01:48:44.266Z,33.81
2023-04-09T01:53:52.089Z,33.98
2023-04-09T01:59:05.462Z,34.27
2023-04-09T02:04:17.758Z,34.43
2023-04-09T02:09:25.220Z,34.76
2023-04-09T02:14:32.602Z,34.87
2023-04-09T02:19:40.061Z,35.04
2023-04-09T02:24:47.471Z,35.18
2023-04-09T02:29:54.941Z,35.40
2023-04-09T02:35:02.368Z,35.55
2023-04-09T02:40:09.622Z,35.81
2023-04-09T02:45:16.830Z,35.98
2023-04-09T02:50:23.990Z,36.14
2023-04-09T02:55:31.210Z,36.20
2023-04-09T03:00:38.381Z,36.32
2023-04-09T03:05:45.597Z,36.35
2023-04-09T03:10:52.881Z,36.45
2023-04-09T03:16:00.160Z,36.53
2023-04-09T03:21:07.392Z,36.38
2023-04-09T03:26:14.787Z,36.19
2023-04-09T03:31:31.181Z,36.17
2023-04-09T03:36:38.704Z,36.20
2023-04-09T03:41:46.122Z,36.22
2023-04-09T03:46:53.669Z,36.10
2023-04-09T03:52:00.996Z,36.16
2023-04-09T03:57:08.334Z,35.91
2023-04-09T04:02:15.681Z,35.74
2023-04-09T04:07:22.862Z,35.64
2023-04-09T04:12:30.257Z,35.68
2023-04-09T04:17:37.560Z,35.65
2023-04-09T04:22:50.999Z,35.58
2023-04-09T04:27:58.406Z,35.48
2023-04-09T04:33:05.898Z,35.48
2023-04-09T04:38:13.453Z,35.41
2023-04-09T04:43:21.086Z,35.42
2023-04-09T04:48:28.494Z,35.39
2023-04-09T04:53:35.823Z,35.36
2023-04-09T04:58:43.271Z,35.31
2023-04-09T05:03:53.847Z,35.34
2023-04-09T05:09:07.558Z,35.31
2023-04-09T05:14:13.226Z,35.43
2023-04-09T05:19:20.057Z,35.45
2023-04-09T05:24:33.844Z,35.74
2023-04-09T05:29:41.316Z,36.24
2023-04-09T05:34:48.938Z,36.32
2023-04-09T05:39:56.444Z,36.35
2023-04-09T05:45:03.787Z,36.51
2023-04-09T05:50:11.036Z,36.71
2023-04-09T05:55:18.535Z,36.76
2023-04-09T06:00:26.394Z,36.96
2023-04-09T06:05:34.296Z,37.01
2023-04-09T06:10:41.695Z,37.03
2023-04-09T06:15:48.981Z,36.78
2023-04-09T06:20:56.103Z,36.24
2023-04-09T06:26:03.292Z,35.71
2023-04-09T06:31:10.656Z,35.31
2023-04-09T06:36:17.655Z,34.88
2023-04-09T06:41:24.848Z,34.54
2023-04-09T06:46:32.096Z,34.29
2023-04-09T06:51:39.211Z,34.07
2023-04-09T06:56:46.778Z,33.81
2023-04-09T07:01:54.708Z,33.66
2023-04-09T07:07:00.891Z,33.51
2023-04-09T07:12:08.066Z,33.36
2023-04-09T07:17:15.251Z,33.08
2023-04-09T07:22:22.448Z,32.92
2023-04-09T07:27:29.640Z,32.69
2023-04-09T07:32:37.006Z,32.54
2023-04-09T07:37:44.214Z,32.51
2023-04-09T07:42:51.392Z,32.35
2023-04-09T07:47:58.724Z,32.32
2023-04-09T07:53:05.834Z,32.25
2023-04-09T07:58:13.121Z,32.21
2023-04-09T08:03:20.603Z,32.08
2023-04-09T08:08:27.495Z,31.99
2023-04-09T08:13:34.698Z,31.88
2023-04-09T08:18:42.004Z,31.94
2023-04-09T08:23:49.268Z,31.85
2023-04-09T08:28:56.462Z,31.79
2023-04-09T08:34:03.779Z,32.94
2023-04-09T08:39:10.999Z,32.01
2023-04-09T08:44:18.240Z,32.04
2023-04-09T08:49:25.533Z,32.97
2023-04-09T08:54:32.778Z,32.76
2023-04-09T08:59:39.960Z,32.38
2023-04-09T09:04:47.171Z,32.40
2023-04-09T09:09:54.317Z,32.46
2023-04-09T09:15:01.513Z,32.49
2023-04-09T09:20:08.714Z,32.47
2023-04-09T09:25:15.868Z,32.57
2023-04-09T09:30:23.081Z,32.68
2023-04-09T09:35:30.265Z,32.56
2023-04-09T09:40:37.428Z,32.56
2023-04-09T09:45:44.702Z,32.57
2023-04-09T09:50:51.825Z,32.76
2023-04-09T09:55:58.976Z,32.74
2023-04-09T10:01:06.176Z,32.72
2023-04-09T10:06:13.369Z,32.91
2023-04-09T10:11:20.541Z,32.80
2023-04-09T10:16:27.885Z,33.23
2023-04-09T10:21:35.060Z,33.15
2023-04-09T10:26:42.189Z,33.71
2023-04-09T10:31:49.365Z,34.62
2023-04-09T10:36:56.642Z,34.71
2023-04-09T10:42:03.758Z,34.42
2023-04-09T10:47:11.296Z,34.52
2023-04-09T10:52:18.975Z,34.52
2023-04-09T10:57:26.005Z,34.80
2023-04-09T11:02:33.267Z,34.84
2023-04-09T11:07:40.466Z,34.42
2023-04-09T11:12:47.555Z,34.69
2023-04-09T11:17:54.821Z,35.38
2023-04-09T11:23:01.949Z,34.81
2023-04-09T11:28:09.115Z,34.77
2023-04-09T11:33:19.086Z,35.16
2023-04-09T11:38:23.547Z,34.75
2023-04-09T11:43:30.656Z,34.39
2023-04-09T11:48:37.891Z,34.72
2023-04-09T11:53:45.097Z,34.65
2023-04-09T11:58:52.537Z,34.83
2023-04-09T12:03:59.798Z,34.71
2023-04-09T12:09:06.711Z,34.43
2023-04-09T12:14:13.930Z,34.91
2023-04-09T12:19:21.235Z,35.04
2023-04-09T12:24:28.479Z,34.99
2023-04-09T12:29:35.677Z,34.55
2023-04-09T12:34:42.835Z,34.29
2023-04-09T12:39:50.030Z,34.64
2023-04-09T12:44:57.170Z,34.48
2023-04-09T12:50:04.366Z,34.42
2023-04-09T12:55:11.599Z,34.58
2023-04-09T13:00:18.763Z,34.59
2023-04-09T13:05:25.923Z,34.42
2023-04-09T13:10:33.144Z,34.52
2023-04-09T13:15:40.347Z,34.39
2023-04-09T13:20:47.617Z,34.51
2023-04-09T13:25:54.781Z,34.71
2023-04-09T13:31:02.007Z,34.42
2023-04-09T13:36:09.189Z,34.12
2023-04-09T13:41:16.462Z,33.57
2023-04-09T13:46:23.673Z,33.67
2023-04-09T13:51:30.823Z,34.00
2023-04-09T13:56:38.004Z,33.97
2023-04-09T14:01:45.339Z,33.93
2023-04-09T14:06:52.362Z,33.77
2023-04-09T14:11:59.576Z,33.83
2023-04-09T14:17:06.839Z,33.75
2023-04-09T14:22:14.015Z,33.56
2023-04-09T14:27:21.225Z,33.43
2023-04-09T14:32:28.457Z,33.42
2023-04-09T14:37:35.577Z,33.17
2023-04-09T14:42:42.780Z,33.34
2023-04-09T14:47:50.058Z,33.31
2023-04-09T14:52:57.244Z,33.46
2023-04-09T14:58:04.637Z,33.65
2023-04-09T15:03:12.060Z,33.42
2023-04-09T15:08:19.009Z,34.43
2023-04-09T15:13:26.225Z,34.58
2023-04-09T15:18:33.364Z,34.36
2023-04-09T15:23:40.550Z,33.98
2023-04-09T15:28:47.797Z,33.69
2023-04-09T15:33:54.969Z,33.41
2023-04-09T15:39:02.170Z,33.20
2023-04-09T15:44:09.384Z,32.91
2023-04-09T15:49:16.569Z,32.67
2023-04-09T15:54:23.733Z,32.52
2023-04-09T15:59:30.956Z,32.26
2023-04-09T16:04:38.202Z,32.15
2023-04-09T16:09:45.300Z,32.09
2023-04-09T16:14:52.520Z,32.06
2023-04-09T16:19:59.709Z,31.99
2023-04-09T16:25:07.066Z,31.87
2023-04-09T16:30:14.298Z,31.27
2023-04-09T16:35:21.421Z,31.07
2023-04-09T16:40:28.594Z,30.86
2023-04-09T16:45:36.157Z,30.89
2023-04-09T16:50:43.284Z,30.53
2023-04-09T16:55:50.573Z,30.55
2023-04-09T17:00:57.813Z,30.33
2023-04-09T17:06:05.237Z,30.37
2023-04-09T17:11:12.527Z,30.54
2023-04-09T17:16:19.865Z,30.20
2023-04-09T17:21:26.982Z,30.21
2023-04-09T17:26:34.203Z,29.98
2023-04-09T17:31:41.372Z,29.79
2023-04-09T17:36:48.521Z,29.46
2023-04-09T17:41:57.128Z,29.69
2023-04-09T17:47:04.337Z,29.92
2023-04-09T17:52:11.506Z,29.71
2023-04-09T17:57:18.729Z,29.61
2023-04-09T18:02:26.220Z,29.68
2023-04-09T18:07:33.068Z,29.59
2023-04-09T18:12:40.270Z,29.72
2023-04-09T18:17:47.713Z,30.17
2023-04-09T18:22:55.038Z,29.87
2023-04-09T18:28:02.311Z,29.79
2023-04-09T18:33:09.517Z,29.89
2023-04-09T18:38:16.907Z,29.90
2023-04-09T18:43:24.249Z,29.96
2023-04-09T18:48:31.541Z,30.46
2023-04-09T18:53:38.730Z,30.02
2023-04-09T18:58:46.025Z,30.22
2023-04-09T19:03:53.442Z,30.31
2023-04-09T19:09:00.385Z,30.38
2023-04-09T19:14:07.675Z,30.31
2023-04-09T19:19:14.885Z,30.65
2023-04-09T19:24:22.053Z,30.35
2023-04-09T19:29:29.337Z,30.30
2023-04-09T19:34:36.772Z,30.36
2023-04-09T19:39:43.895Z,30.27
2023-04-09T19:44:51.131Z,30.26
2023-04-09T19:49:58.417Z,30.26
2023-04-09T19:55:05.572Z,30.26
2023-04-09T20:00:12.891Z,30.30
2023-04-09T20:05:20.175Z,30.31
2023-04-09T20:10:27.409Z,30.17
2023-04-09T20:15:34.613Z,30.11
2023-04-09T20:20:41.804Z,30.29
2023-04-09T20:25:49.066Z,30.13
2023-04-09T20:30:56.268Z,30.13
2023-04-09T20:36:03.511Z,29.98
2023-04-09T20:41:10.620Z,29.97
2023-04-09T20:46:17.893Z,30.48
2023-04-09T20:51:25.115Z,29.98
2023-04-09T20:56:32.383Z,29.82
2023-04-09T21:01:39.693Z,30.15
2023-04-09T21:06:46.789Z,29.89
2023-04-09T21:11:53.968Z,30.08
2023-04-09T21:17:01.325Z,30.11
2023-04-09T21:22:08.441Z,30.50
2023-04-09T21:27:15.585Z,29.98
2023-04-09T21:32:22.806Z,29.98
2023-04-09T21:37:29.979Z,29.92
2023-04-09T21:42:37.151Z,30.01
2023-04-09T21:47:44.481Z,29.66
2023-04-09T21:52:51.652Z,29.62
2023-04-09T21:57:58.874Z,29.54
2023-04-09T22:03:06.208Z,29.51
2023-04-09T22:08:13.316Z,29.63
2023-04-09T22:13:20.467Z,29.43
2023-04-09T22:18:27.653Z,29.37
2023-04-09T22:23:34.970Z,29.31
2023-04-09T22:28:42.150Z,29.27
2023-04-09T22:33:49.412Z,29.27
2023-04-09T22:38:56.616Z,29.12
2023-04-09T22:44:03.767Z,29.29
2023-04-09T22:49:11.380Z,29.26
2023-04-09T22:54:18.285Z,29.14
2023-04-09T22:59:33.759Z,29.11
2023-04-09T23:04:32.638Z,29.01
2023-04-09T23:09:40.098Z,28.88
2023-04-09T23:14:56.797Z,28.85
2023-04-09T23:20:44.208Z,28.82
2023-04-09T23:26:00.937Z,28.84
2023-04-09T23:31:43.539Z,28.90
2023-04-09T23:37:30.816Z,28.97
2023-04-09T23:43:13.544Z,28.98
2023-04-09T23:48:59.897Z,29.02
2023-04-09T23:54:42.349Z,29.11
